Frankston, Texas
Current Conditions -  °F | °C
As of 10:15 AM on Monday 26 Jan 2015 (Local Time) from KF44 Reporting Station
Clear Clear  
Wind Chill: 50°   Ceiling: Unl
Heat Index: 50°   Visibility: 10mi
Dew Point: 32°   Wind: 3mph
Humidity: 50%   Direction: 360°N
Pressure: 30.23"   Gusts: NA
Location:  32.05°N, 95.51°W
Report Text: KF44 261615Z AUTO 36003KT 10SM CLR 10/00 A3023 RMK AO2
Loading
Personal Weather Stations






























Interactive Weather Map New forecast layout! Learn more

10-Day Weather Forecast

Advertisements
Track Severe Weather on mobile